createdAt,value
2023-04-18T00:01:46.664Z,38.24
2023-04-18T00:04:14.765Z,38.61
2023-04-18T00:06:42.357Z,38.07
2023-04-18T00:09:09.519Z,37.97
2023-04-18T00:11:36.785Z,37.65
2023-04-18T00:14:04.493Z,37.85
2023-04-18T00:16:32.581Z,37.42
2023-04-18T00:18:59.914Z,38.05
2023-04-18T00:21:27.096Z,38.45
2023-04-18T00:23:54.232Z,38.67
2023-04-18T00:26:21.367Z,37.76
2023-04-18T00:28:49.223Z,38.21
2023-04-18T00:31:18.036Z,38.31
2023-04-18T00:33:45.188Z,38.39
2023-04-18T00:36:12.339Z,38.60
2023-04-18T00:38:41.921Z,39.10
2023-04-18T00:41:09.045Z,38.64
2023-04-18T00:43:37.256Z,38.87
2023-04-18T00:46:04.547Z,39.11
2023-04-18T00:48:31.915Z,39.35
2023-04-18T00:51:00.500Z,39.54
2023-04-18T00:53:28.713Z,39.84
2023-04-18T00:55:56.030Z,39.44
2023-04-18T00:58:24.366Z,39.21
2023-04-18T01:00:52.327Z,38.23
2023-04-18T01:03:20.013Z,38.86
2023-04-18T01:05:47.374Z,38.34
2023-04-18T01:08:14.849Z,38.84
2023-04-18T01:10:42.449Z,38.99
2023-04-18T01:13:17.199Z,38.61
2023-04-18T01:15:47.092Z,39.02
2023-04-18T01:18:20.913Z,38.80
2023-04-18T01:20:50.359Z,38.59
2023-04-18T01:23:21.422Z,38.34
2023-04-18T01:25:51.666Z,38.22
2023-04-18T01:28:21.605Z,38.16
2023-04-18T01:30:49.384Z,38.73
2023-04-18T01:33:16.687Z,38.57
2023-04-18T01:35:46.893Z,38.43
2023-04-18T01:38:14.027Z,38.22
2023-04-18T01:40:41.162Z,38.24
2023-04-18T01:43:08.290Z,38.47
2023-04-18T01:45:38.205Z,38.86
2023-04-18T01:48:05.673Z,39.74
2023-04-18T01:50:33.687Z,40.26
2023-04-18T01:53:00.980Z,40.05
2023-04-18T01:55:28.266Z,40.42
2023-04-18T01:57:55.555Z,40.59
2023-04-18T02:00:22.876Z,39.75
2023-04-18T02:02:50.607Z,40.21
2023-04-18T02:05:17.986Z,40.23
2023-04-18T02:07:45.622Z,39.69
2023-04-18T02:10:12.776Z,39.52
2023-04-18T02:12:40.691Z,39.48
2023-04-18T02:15:09.295Z,39.54
2023-04-18T02:17:38.066Z,39.56
2023-04-18T02:20:08.351Z,39.64
2023-04-18T02:22:38.248Z,39.60
2023-04-18T02:25:05.899Z,39.81
2023-04-18T02:27:34.368Z,39.58
2023-04-18T02:30:02.629Z,39.40
2023-04-18T02:32:34.315Z,39.50
2023-04-18T02:35:01.926Z,39.79
2023-04-18T02:37:32.620Z,39.93
2023-04-18T02:39:59.748Z,40.67
2023-04-18T02:42:31.727Z,40.91
2023-04-18T02:45:00.033Z,40.69
2023-04-18T02:47:31.733Z,41.47
2023-04-18T02:50:04.246Z,41.61
2023-04-18T02:52:32.414Z,42.38
2023-04-18T02:54:59.811Z,41.83
2023-04-18T02:57:31.827Z,41.86
2023-04-18T03:00:23.176Z,41.56
2023-04-18T03:03:26.083Z,41.63
2023-04-18T03:06:18.530Z,41.47
2023-04-18T03:08:46.084Z,41.22
2023-04-18T03:11:14.008Z,41.62
2023-04-18T03:13:41.193Z,41.76
2023-04-18T03:16:08.755Z,42.06
2023-04-18T03:18:36.432Z,41.96
2023-04-18T03:21:03.843Z,41.57
2023-04-18T03:23:33.113Z,41.49
2023-04-18T03:26:03.098Z,41.34
2023-04-18T03:28:32.458Z,41.91
2023-04-18T03:31:00.157Z,41.70
2023-04-18T03:33:28.952Z,41.84
2023-04-18T03:36:06.304Z,41.37
2023-04-18T03:38:33.819Z,41.34
2023-04-18T03:41:01.228Z,41.26
2023-04-18T03:43:33.832Z,41.41
2023-04-18T03:46:02.272Z,41.11
2023-04-18T03:48:29.865Z,41.36
2023-04-18T03:51:01.651Z,41.07
2023-04-18T03:53:29.188Z,41.20
2023-04-18T03:55:56.627Z,41.31
2023-04-18T03:58:31.412Z,41.66
2023-04-18T04:01:01.194Z,41.18
2023-04-18T04:03:30.428Z,41.23
2023-04-18T04:05:57.701Z,41.42
2023-04-18T04:08:26.984Z,41.57
2023-04-18T04:10:55.286Z,41.96
2023-04-18T04:13:23.674Z,41.72
2023-04-18T04:15:51.854Z,41.44
2023-04-18T04:18:19.100Z,41.29
2023-04-18T04:20:47.956Z,41.00
2023-04-18T04:23:38.161Z,41.51
2023-04-18T04:26:05.707Z,41.65
2023-04-18T04:28:43.000Z,41.52
2023-04-18T04:31:11.478Z,42.01
2023-04-18T04:33:41.138Z,41.76
2023-04-18T04:36:18.839Z,41.77
2023-04-18T04:38:47.742Z,41.91
2023-04-18T04:41:16.017Z,41.99
2023-04-18T04:43:43.523Z,42.22
2023-04-18T04:46:13.877Z,42.23
2023-04-18T04:48:43.357Z,41.66
2023-04-18T04:51:10.570Z,41.80
2023-04-18T04:53:38.008Z,40.99
2023-04-18T04:56:06.132Z,40.58
2023-04-18T04:58:34.489Z,41.50
2023-04-18T05:01:27.712Z,40.77
2023-04-18T05:03:55.091Z,40.90
2023-04-18T05:06:22.878Z,41.12
2023-04-18T05:08:51.152Z,41.22
2023-04-18T05:11:18.778Z,40.79
2023-04-18T05:13:45.953Z,40.48
2023-04-18T05:16:13.234Z,41.07
2023-04-18T05:18:41.517Z,41.33
2023-04-18T05:21:08.668Z,41.65
2023-04-18T05:23:37.255Z,41.84
2023-04-18T05:26:05.823Z,41.53
2023-04-18T05:28:33.287Z,41.05
2023-04-18T05:31:03.498Z,41.04
2023-04-18T05:33:31.828Z,40.82
2023-04-18T05:35:59.341Z,40.76
2023-04-18T05:38:26.592Z,40.23
2023-04-18T05:40:55.834Z,40.44
2023-04-18T05:43:23.594Z,39.91
2023-04-18T05:45:52.730Z,40.99
2023-04-18T05:48:21.502Z,40.71
2023-04-18T05:50:48.835Z,40.47
2023-04-18T05:53:16.045Z,41.16
2023-04-18T05:55:43.373Z,41.73
2023-04-18T05:58:10.660Z,41.63
2023-04-18T06:00:37.850Z,42.06
2023-04-18T06:03:05.835Z,41.14
2023-04-18T06:05:34.807Z,41.01
2023-04-18T06:08:02.089Z,41.32
2023-04-18T06:10:29.795Z,40.99
2023-04-18T06:12:56.996Z,40.94
2023-04-18T06:15:24.906Z,40.83
2023-04-18T06:17:52.195Z,41.30
2023-04-18T06:20:19.658Z,41.31
2023-04-18T06:22:46.850Z,41.06
2023-04-18T06:25:14.052Z,41.71
2023-04-18T06:27:41.306Z,41.19
2023-04-18T06:30:09.022Z,41.12
2023-04-18T06:32:36.331Z,40.76
2023-04-18T06:35:03.857Z,42.04
2023-04-18T06:37:32.787Z,41.82
2023-04-18T06:40:00.222Z,41.66
2023-04-18T06:42:27.463Z,41.86
2023-04-18T06:44:55.158Z,41.47
2023-04-18T06:47:24.243Z,42.05
2023-04-18T06:49:51.448Z,41.40
2023-04-18T06:52:18.600Z,39.96
2023-04-18T06:54:45.751Z,40.50
2023-04-18T06:57:12.976Z,40.14
2023-04-18T06:59:41.485Z,40.31
2023-04-18T07:02:08.733Z,39.90
2023-04-18T07:04:36.062Z,39.39
2023-04-18T07:07:05.241Z,38.15
2023-04-18T07:09:32.673Z,35.81
2023-04-18T07:11:59.867Z,36.14
2023-04-18T07:14:27.448Z,36.74
2023-04-18T07:16:54.653Z,36.97
2023-04-18T07:19:21.952Z,35.29
2023-04-18T07:21:49.158Z,33.40
2023-04-18T07:24:16.626Z,33.79
2023-04-18T07:26:44.118Z,34.29
2023-04-18T07:29:11.231Z,37.00
2023-04-18T07:31:38.364Z,37.49
2023-04-18T07:34:05.874Z,38.00
2023-04-18T07:36:32.999Z,37.31
2023-04-18T07:39:02.154Z,36.29
2023-04-18T07:41:29.613Z,34.92
2023-04-18T07:43:56.890Z,34.70
2023-04-18T07:46:24.218Z,34.20
2023-04-18T07:48:51.431Z,34.27
2023-04-18T07:51:18.690Z,35.22
2023-04-18T07:53:45.877Z,34.37
2023-04-18T07:56:14.569Z,34.34
2023-04-18T07:58:41.848Z,34.18
2023-04-18T08:01:13.627Z,32.85
2023-04-18T08:03:41.901Z,31.79
2023-04-18T08:06:09.996Z,32.14
2023-04-18T08:08:37.386Z,31.33
2023-04-18T08:11:04.603Z,32.91
2023-04-18T08:13:32.057Z,32.31
2023-04-18T08:16:00.042Z,31.44
2023-04-18T08:18:27.374Z,31.66
2023-04-18T08:20:54.598Z,30.97
2023-04-18T08:23:21.898Z,30.21
2023-04-18T08:25:49.425Z,29.23
2023-04-18T08:28:16.637Z,31.32
2023-04-18T08:30:44.200Z,33.26
2023-04-18T08:33:11.419Z,33.49
2023-04-18T08:35:38.637Z,33.00
2023-04-18T08:38:05.876Z,33.22
2023-04-18T08:40:33.415Z,32.92
2023-04-18T08:43:04.955Z,33.10
2023-04-18T08:45:33.534Z,32.08
2023-04-18T08:48:03.263Z,32.37
2023-04-18T08:50:32.077Z,33.03
2023-04-18T08:53:01.554Z,32.90
2023-04-18T08:55:29.041Z,33.39
2023-04-18T08:57:56.588Z,33.99
2023-04-18T09:00:23.991Z,34.10
2023-04-18T09:02:56.860Z,34.08
2023-04-18T09:05:27.619Z,33.21
2023-04-18T09:07:56.336Z,33.80
2023-04-18T09:10:33.521Z,34.16
2023-04-18T09:13:03.401Z,34.19
2023-04-18T09:15:31.322Z,33.02
2023-04-18T09:18:02.441Z,33.32
2023-04-18T09:20:38.294Z,33.32
2023-04-18T09:23:11.000Z,33.28
2023-04-18T09:25:44.438Z,34.64
2023-04-18T09:28:22.684Z,33.79
2023-04-18T09:30:54.639Z,33.31
2023-04-18T09:33:29.595Z,32.45
2023-04-18T09:35:57.381Z,32.79
2023-04-18T09:38:43.508Z,32.61
2023-04-18T09:41:12.676Z,32.58
2023-04-18T09:43:39.952Z,32.82
2023-04-18T09:46:08.922Z,32.63
2023-04-18T09:48:36.591Z,33.90
2023-04-18T09:51:09.438Z,32.94
2023-04-18T09:53:41.024Z,33.58
2023-04-18T09:56:17.156Z,34.66
2023-04-18T09:58:47.590Z,35.67
2023-04-18T10:01:15.321Z,36.76
2023-04-18T10:03:47.446Z,37.41
2023-04-18T10:06:18.319Z,37.21
2023-04-18T10:08:47.970Z,37.47
2023-04-18T10:11:15.836Z,37.54
2023-04-18T10:13:47.925Z,37.32
2023-04-18T10:16:16.995Z,36.66
2023-04-18T10:18:44.493Z,37.43
2023-04-18T10:21:11.890Z,37.23
2023-04-18T10:23:39.960Z,37.16
2023-04-18T10:26:08.588Z,37.45
2023-04-18T10:28:59.118Z,37.56
2023-04-18T10:31:27.928Z,37.86
2023-04-18T10:36:30.312Z,38.70
2023-04-18T10:39:05.898Z,39.22
2023-04-18T10:41:34.380Z,39.29
2023-04-18T10:44:08.727Z,38.83
2023-04-18T10:46:40.893Z,38.64
2023-04-18T10:49:23.919Z,39.35
2023-04-18T10:52:03.523Z,38.91
2023-04-18T10:54:37.651Z,39.23
2023-04-18T10:57:07.717Z,39.38
2023-04-18T10:59:38.826Z,39.09
2023-04-18T11:02:25.688Z,38.76
2023-04-18T11:04:55.601Z,38.70
2023-04-18T11:07:34.077Z,39.26
2023-04-18T11:10:02.113Z,38.31
2023-04-18T11:12:37.063Z,39.27
2023-04-18T11:15:22.973Z,39.66
2023-04-18T11:17:57.804Z,38.90
2023-04-18T11:20:25.080Z,39.28
2023-04-18T11:22:53.708Z,38.51
2023-04-18T11:25:27.645Z,38.53
2023-04-18T11:27:55.908Z,38.50
2023-04-18T11:30:23.354Z,38.75
2023-04-18T11:32:51.768Z,38.51
2023-04-18T11:35:19.162Z,38.55
2023-04-18T11:37:46.355Z,39.02
2023-04-18T11:40:14.431Z,38.09
2023-04-18T11:42:42.182Z,37.80
2023-04-18T11:45:14.125Z,37.93
2023-04-18T11:47:43.073Z,37.63
2023-04-18T11:50:13.111Z,38.27
2023-04-18T11:52:42.615Z,39.05
2023-04-18T11:55:17.963Z,38.80
2023-04-18T11:57:58.929Z,37.94
2023-04-18T12:00:40.245Z,38.49
2023-04-18T12:03:16.312Z,38.25
2023-04-18T12:05:45.874Z,37.83
2023-04-18T12:08:20.730Z,37.20
2023-04-18T12:10:52.395Z,37.02
2023-04-18T12:13:25.041Z,37.01
2023-04-18T12:15:53.822Z,37.47
2023-04-18T12:18:21.615Z,37.94
2023-04-18T12:20:52.515Z,37.76
2023-04-18T12:23:29.925Z,37.80
2023-04-18T12:26:04.997Z,38.00
2023-04-18T12:28:32.928Z,38.33
2023-04-18T12:31:00.836Z,38.21
2023-04-18T12:33:28.318Z,38.16
2023-04-18T12:35:56.211Z,38.09
2023-04-18T12:38:24.426Z,37.90
2023-04-18T12:40:52.561Z,37.96
2023-04-18T12:43:20.262Z,37.03
2023-04-18T12:45:47.557Z,36.51
2023-04-18T12:48:14.939Z,36.62
2023-04-18T12:50:42.199Z,37.61
2023-04-18T12:53:09.480Z,36.71
2023-04-18T12:55:36.991Z,36.99
2023-04-18T12:58:04.150Z,36.95
2023-04-18T13:00:33.044Z,37.23
2023-04-18T13:03:00.939Z,37.04
2023-04-18T13:05:32.804Z,36.78
2023-04-18T13:10:31.716Z,37.69
2023-04-18T13:12:58.916Z,36.98
2023-04-18T13:15:27.629Z,36.70
2023-04-18T13:17:56.766Z,36.58
2023-04-18T13:20:24.521Z,36.05
2023-04-18T13:22:51.647Z,36.23
2023-04-18T13:25:18.986Z,35.80
2023-04-18T13:27:47.247Z,35.57
2023-04-18T13:30:14.559Z,35.45
2023-04-18T13:32:44.057Z,35.89
2023-04-18T13:35:11.778Z,35.98
2023-04-18T13:37:39.784Z,36.81
2023-04-18T13:40:08.032Z,36.86
2023-04-18T13:42:37.048Z,36.86
2023-04-18T13:45:04.571Z,36.46
2023-04-18T13:47:33.796Z,36.58
2023-04-18T13:50:01.155Z,36.12
2023-04-18T13:52:31.459Z,36.59
2023-04-18T13:54:58.762Z,35.97
2023-04-18T13:57:26.050Z,36.26
2023-04-18T13:59:53.275Z,36.53
2023-04-18T14:02:20.723Z,36.40
2023-04-18T14:04:48.634Z,36.35
2023-04-18T14:07:16.634Z,35.72
2023-04-18T14:09:45.144Z,35.62
2023-04-18T14:12:12.430Z,36.11
2023-04-18T14:14:39.565Z,36.39
2023-04-18T14:17:06.829Z,36.41
2023-04-18T14:19:34.966Z,36.96
2023-04-18T14:22:02.086Z,36.34
2023-04-18T14:24:29.256Z,36.63
2023-04-18T14:26:56.444Z,36.55
2023-04-18T14:29:23.610Z,37.46
2023-04-18T14:31:50.870Z,37.79
2023-04-18T14:34:18.002Z,37.36
2023-04-18T14:36:45.426Z,37.08
2023-04-18T14:39:13.298Z,36.68
2023-04-18T14:41:40.618Z,36.77
2023-04-18T14:44:07.747Z,36.77
2023-04-18T14:46:35.008Z,36.81
2023-04-18T14:49:02.138Z,37.01
2023-04-18T14:51:29.328Z,36.41
2023-04-18T14:53:56.629Z,36.82
2023-04-18T14:56:24.475Z,37.30
2023-04-18T14:58:51.664Z,36.62
2023-04-18T15:01:19.026Z,36.85
2023-04-18T15:03:46.407Z,36.71
2023-04-18T15:06:13.754Z,36.79
2023-04-18T15:08:41.298Z,37.16
2023-04-18T15:11:08.776Z,36.78
2023-04-18T15:13:36.442Z,36.97
2023-04-18T15:16:03.811Z,36.56
2023-04-18T15:18:31.014Z,36.70
2023-04-18T15:21:01.396Z,37.37
2023-04-18T15:23:28.624Z,37.42
2023-04-18T15:25:56.588Z,37.50
2023-04-18T15:28:23.786Z,37.21
2023-04-18T15:30:51.040Z,37.09
2023-04-18T15:33:20.501Z,36.76
2023-04-18T15:35:48.093Z,37.28
2023-04-18T15:38:15.533Z,36.71
2023-04-18T15:40:43.686Z,36.97
2023-04-18T15:43:11.003Z,37.38
2023-04-18T15:45:38.333Z,37.56
2023-04-18T15:48:05.963Z,37.38
2023-04-18T15:50:33.978Z,37.34
2023-04-18T15:53:02.612Z,37.69
2023-04-18T15:55:30.186Z,38.10
2023-04-18T15:57:57.600Z,38.17
2023-04-18T16:00:25.153Z,38.16
2023-04-18T16:02:52.719Z,38.29
2023-04-18T16:05:20.302Z,38.30
2023-04-18T16:07:47.504Z,38.12
2023-04-18T16:10:15.422Z,38.69
2023-04-18T16:12:43.033Z,38.74
2023-04-18T16:15:10.853Z,38.79
2023-04-18T16:17:38.499Z,39.22
2023-04-18T16:20:08.279Z,39.25
2023-04-18T16:22:36.121Z,39.03
2023-04-18T16:25:04.517Z,39.76
2023-04-18T16:27:32.706Z,39.39
2023-04-18T16:29:59.994Z,39.93
2023-04-18T16:32:27.484Z,39.81
2023-04-18T16:34:54.843Z,39.60
2023-04-18T16:37:22.234Z,39.73
2023-04-18T16:39:49.496Z,39.96
2023-04-18T16:42:16.699Z,39.93
2023-04-18T16:44:45.396Z,40.25
2023-04-18T16:47:31.473Z,39.77
2023-04-18T16:49:58.812Z,39.43
2023-04-18T16:52:25.947Z,39.87
2023-04-18T16:54:53.207Z,40.00
2023-04-18T16:57:20.440Z,39.83
2023-04-18T16:59:47.587Z,39.91
2023-04-18T17:02:14.875Z,39.69
2023-04-18T17:04:42.307Z,39.51
2023-04-18T17:07:09.488Z,39.96
2023-04-18T17:09:36.685Z,39.98
2023-04-18T17:12:04.015Z,40.07
2023-04-18T17:14:31.124Z,39.82
2023-04-18T17:16:58.250Z,39.79
2023-04-18T17:19:26.357Z,39.64
2023-04-18T17:21:53.655Z,39.61
2023-04-18T17:24:22.633Z,40.05
2023-04-18T17:26:50.008Z,39.97
2023-04-18T17:29:18.467Z,39.96
2023-04-18T17:31:45.747Z,39.34
2023-04-18T17:34:13.040Z,39.74
2023-04-18T17:36:40.323Z,40.27
2023-04-18T17:39:07.510Z,40.28
2023-04-18T17:41:38.613Z,40.29
2023-04-18T17:44:07.720Z,40.45
2023-04-18T17:46:35.246Z,40.61
2023-04-18T17:49:02.648Z,40.28
2023-04-18T17:51:29.901Z,40.99
2023-04-18T17:53:57.377Z,41.27
2023-04-18T17:56:24.755Z,41.10
2023-04-18T17:58:52.937Z,41.26
2023-04-18T18:01:22.172Z,41.92
2023-04-18T18:03:49.872Z,41.18
2023-04-18T18:06:17.278Z,41.26
2023-04-18T18:08:44.520Z,41.37
2023-04-18T18:11:11.909Z,41.27
2023-04-18T18:13:39.272Z,41.84
2023-04-18T18:16:07.704Z,41.36
2023-04-18T18:18:35.414Z,41.38
2023-04-18T18:21:02.683Z,41.39
2023-04-18T18:23:29.877Z,41.61
2023-04-18T18:25:57.127Z,41.38
2023-04-18T18:28:24.396Z,41.39
2023-04-18T18:30:51.753Z,41.34
2023-04-18T18:33:19.181Z,41.64
2023-04-18T18:35:46.453Z,40.84
2023-04-18T18:38:14.065Z,40.74
2023-04-18T18:40:41.225Z,41.12
2023-04-18T18:43:08.412Z,41.23
2023-04-18T18:45:35.658Z,40.91
2023-04-18T18:48:04.023Z,40.90
2023-04-18T18:50:31.396Z,40.41
2023-04-18T18:52:59.637Z,40.45
2023-04-18T18:55:26.883Z,40.22
2023-04-18T18:57:54.128Z,40.25
2023-04-18T19:00:21.565Z,39.81
2023-04-18T19:02:48.817Z,40.04
2023-04-18T19:05:17.463Z,39.41
2023-04-18T19:07:44.736Z,39.62
2023-04-18T19:10:11.995Z,39.32
2023-04-18T19:12:39.270Z,39.26
2023-04-18T19:15:07.032Z,39.15
2023-04-18T19:17:35.938Z,38.95
2023-04-18T19:20:03.605Z,38.64
2023-04-18T19:22:33.333Z,38.50
2023-04-18T19:25:00.985Z,38.83
2023-04-18T19:27:28.453Z,38.42
2023-04-18T19:29:55.843Z,38.49
2023-04-18T19:32:23.145Z,38.76
2023-04-18T19:34:51.552Z,38.53
2023-04-18T19:37:18.715Z,38.13
2023-04-18T19:39:45.836Z,38.35
2023-04-18T19:42:13.047Z,38.52
2023-04-18T19:44:40.309Z,38.49
2023-04-18T19:47:07.510Z,38.39
2023-04-18T19:49:35.583Z,38.36
2023-04-18T19:52:02.741Z,37.91
2023-04-18T19:54:33.435Z,38.44
2023-04-18T19:57:01.331Z,38.50
2023-04-18T19:59:28.540Z,38.62
2023-04-18T20:01:57.221Z,38.73
2023-04-18T20:04:26.057Z,38.21
2023-04-18T20:06:54.106Z,38.09
2023-04-18T20:09:21.449Z,38.42
2023-04-18T20:11:49.103Z,38.76
2023-04-18T20:14:16.670Z,38.24
2023-04-18T20:16:45.901Z,38.45
2023-04-18T20:19:13.997Z,38.27
2023-04-18T20:21:41.492Z,38.27
2023-04-18T20:24:09.792Z,38.19
2023-04-18T20:26:37.269Z,38.20
2023-04-18T20:29:04.519Z,38.25
2023-04-18T20:31:31.639Z,38.34
2023-04-18T20:33:58.968Z,38.54
2023-04-18T20:36:26.148Z,38.52
2023-04-18T20:38:53.273Z,38.16
2023-04-18T20:41:24.263Z,38.17
2023-04-18T20:43:53.822Z,38.61
2023-04-18T20:46:24.517Z,38.54
2023-04-18T20:48:52.361Z,38.67
2023-04-18T20:51:19.542Z,38.66
2023-04-18T20:53:46.920Z,38.49
2023-04-18T20:56:14.042Z,38.45
2023-04-18T20:58:42.064Z,38.67
2023-04-18T21:01:09.269Z,39.04
2023-04-18T21:03:36.682Z,39.09
2023-04-18T21:06:04.008Z,39.52
2023-04-18T21:08:31.853Z,39.58
2023-04-18T21:10:59.015Z,38.92
2023-04-18T21:13:26.157Z,38.96
2023-04-18T21:15:53.393Z,38.99
2023-04-18T21:18:20.951Z,38.89
2023-04-18T21:20:48.149Z,38.44
2023-04-18T21:23:15.484Z,38.67
2023-04-18T21:25:42.600Z,38.27
2023-04-18T21:28:09.723Z,38.48
2023-04-18T21:30:36.916Z,38.41
2023-04-18T21:33:04.544Z,38.37
2023-04-18T21:35:32.085Z,38.90
2023-04-18T21:37:59.557Z,38.73
2023-04-18T21:40:26.996Z,38.38
2023-04-18T21:42:54.245Z,38.75
2023-04-18T21:45:21.625Z,39.29
2023-04-18T21:47:49.750Z,39.36
2023-04-18T21:50:17.034Z,38.96
2023-04-18T21:52:44.207Z,38.69
2023-04-18T21:55:11.462Z,38.30
2023-04-18T21:57:38.656Z,39.05
2023-04-18T22:00:09.264Z,38.52
2023-04-18T22:02:37.797Z,38.46
2023-04-18T22:05:05.750Z,38.59
2023-04-18T22:07:34.185Z,38.38
2023-04-18T22:10:03.695Z,38.13
2023-04-18T22:12:32.313Z,38.73
2023-04-18T22:14:59.480Z,38.93
2023-04-18T22:17:26.654Z,37.89
2023-04-18T22:19:54.869Z,37.86
2023-04-18T22:22:22.052Z,37.87
2023-04-18T22:24:49.264Z,37.65
2023-04-18T22:27:16.470Z,37.36
2023-04-18T22:29:43.567Z,37.66
2023-04-18T22:32:10.755Z,37.14
2023-04-18T22:34:37.892Z,37.76
2023-04-18T22:37:05.086Z,37.71
2023-04-18T22:39:32.324Z,37.97
2023-04-18T22:41:59.454Z,37.34
2023-04-18T22:44:26.660Z,37.34
2023-04-18T22:46:54.845Z,38.12
2023-04-18T22:49:22.432Z,37.78
2023-04-18T22:51:49.780Z,37.98
2023-04-18T22:54:17.138Z,38.04
2023-04-18T22:56:44.530Z,37.97
2023-04-18T22:59:11.736Z,38.09
2023-04-18T23:01:38.906Z,37.88
2023-04-18T23:04:06.682Z,37.52
2023-04-18T23:06:34.113Z,37.73
2023-04-18T23:09:01.251Z,37.68
2023-04-18T23:11:28.632Z,38.17
2023-04-18T23:13:55.817Z,37.85
2023-04-18T23:16:23.269Z,37.56
2023-04-18T23:18:50.473Z,38.52
2023-04-18T23:21:18.110Z,37.53
2023-04-18T23:23:45.292Z,37.59
2023-04-18T23:26:16.187Z,37.97
2023-04-18T23:28:43.732Z,37.93
2023-04-18T23:31:11.177Z,37.59
2023-04-18T23:33:38.547Z,37.85
2023-04-18T23:36:06.634Z,37.99
2023-04-18T23:38:33.864Z,38.22
2023-04-18T23:41:01.031Z,38.38
2023-04-18T23:43:28.129Z,39.02
2023-04-18T23:45:55.292Z,38.45
2023-04-18T23:48:22.675Z,39.25
2023-04-18T23:50:52.246Z,39.22
2023-04-18T23:53:21.146Z,39.83
2023-04-18T23:55:50.670Z,39.12
2023-04-18T23:58:18.349Z,39.62
